sensor_id;sensor_type;location;lat;lon;timestamp;P1;durP1;ratioP1;P2;durP2;ratioP2
41629;SDS011;27322;49.488;8.480;2023-05-19T00:01:56;4.20;;;1.10;;
41629;SDS011;27322;49.488;8.480;2023-05-19T00:04:24;5.57;;;1.42;;
41629;SDS011;27322;49.488;8.480;2023-05-19T00:06:50;5.43;;;1.58;;
41629;SDS011;27322;49.488;8.480;2023-05-19T00:09:18;5.22;;;1.40;;
41629;SDS011;27322;49.488;8.480;2023-05-19T00:11:44;4.68;;;1.55;;
41629;SDS011;27322;49.488;8.480;2023-05-19T00:14:10;3.05;;;1.20;;
41629;SDS011;27322;49.488;8.480;2023-05-19T00:16:36;5.10;;;1.58;;
41629;SDS011;27322;49.488;8.480;2023-05-19T00:19:03;5.60;;;1.42;;
41629;SDS011;27322;49.488;8.480;2023-05-19T00:21:30;6.03;;;1.50;;
41629;SDS011;27322;49.488;8.480;2023-05-19T00:23:56;5.40;;;1.73;;
41629;SDS011;27322;49.488;8.480;2023-05-19T00:26:22;7.88;;;1.70;;
41629;SDS011;27322;49.488;8.480;2023-05-19T00:28:49;6.78;;;1.60;;
41629;SDS011;27322;49.488;8.480;2023-05-19T00:31:14;6.18;;;1.52;;
41629;SDS011;27322;49.488;8.480;2023-05-19T00:33:40;4.50;;;1.58;;
41629;SDS011;27322;49.488;8.480;2023-05-19T00:36:06;4.22;;;1.40;;
41629;SDS011;27322;49.488;8.480;2023-05-19T00:38:33;4.53;;;1.30;;
41629;SDS011;27322;49.488;8.480;2023-05-19T00:41:01;4.68;;;1.50;;
41629;SDS011;27322;49.488;8.480;2023-05-19T00:43:27;6.32;;;1.50;;
41629;SDS011;27322;49.488;8.480;2023-05-19T00:45:54;7.45;;;1.77;;
41629;SDS011;27322;49.488;8.480;2023-05-19T00:48:20;6.05;;;1.67;;
41629;SDS011;27322;49.488;8.480;2023-05-19T00:50:46;6.93;;;1.60;;
41629;SDS011;27322;49.488;8.480;2023-05-19T00:53:13;4.47;;;1.52;;
41629;SDS011;27322;49.488;8.480;2023-05-19T00:55:42;3.72;;;1.20;;
41629;SDS011;27322;49.488;8.480;2023-05-19T00:58:08;5.38;;;1.52;;
41629;SDS011;27322;49.488;8.480;2023-05-19T01:00:35;3.85;;;1.50;;
41629;SDS011;27322;49.488;8.480;2023-05-19T01:03:02;3.80;;;1.33;;
41629;SDS011;27322;49.488;8.480;2023-05-19T01:05:38;5.22;;;1.60;;
41629;SDS011;27322;49.488;8.480;2023-05-19T01:08:05;6.25;;;1.48;;
41629;SDS011;27322;49.488;8.480;2023-05-19T01:10:32;5.68;;;1.60;;
41629;SDS011;27322;49.488;8.480;2023-05-19T01:12:57;4.70;;;1.50;;
41629;SDS011;27322;49.488;8.480;2023-05-19T01:15:23;5.18;;;1.48;;
41629;SDS011;27322;49.488;8.480;2023-05-19T01:20:37;6.53;;;1.67;;
41629;SDS011;27322;49.488;8.480;2023-05-19T01:28:40;3.38;;;1.35;;
41629;SDS011;27322;49.488;8.480;2023-05-19T01:31:20;5.53;;;1.63;;
41629;SDS011;27322;49.488;8.480;2023-05-19T01:33:47;5.88;;;1.60;;
41629;SDS011;27322;49.488;8.480;2023-05-19T01:36:15;4.90;;;1.50;;
41629;SDS011;27322;49.488;8.480;2023-05-19T01:38:43;4.35;;;1.50;;
41629;SDS011;27322;49.488;8.480;2023-05-19T01:41:09;6.47;;;1.80;;
41629;SDS011;27322;49.488;8.480;2023-05-19T01:43:36;6.13;;;1.63;;
41629;SDS011;27322;49.488;8.480;2023-05-19T01:46:02;8.13;;;1.70;;
41629;SDS011;27322;49.488;8.480;2023-05-19T01:48:29;8.93;;;1.90;;
41629;SDS011;27322;49.488;8.480;2023-05-19T01:50:55;5.13;;;1.63;;
41629;SDS011;27322;49.488;8.480;2023-05-19T01:53:22;4.70;;;1.70;;
41629;SDS011;27322;49.488;8.480;2023-05-19T01:55:49;5.20;;;1.70;;
41629;SDS011;27322;49.488;8.480;2023-05-19T01:58:17;4.93;;;1.50;;
41629;SDS011;27322;49.488;8.480;2023-05-19T02:00:51;6.18;;;1.92;;
41629;SDS011;27322;49.488;8.480;2023-05-19T02:08:56;6.18;;;1.42;;
41629;SDS011;27322;49.488;8.480;2023-05-19T02:11:31;4.65;;;1.70;;
41629;SDS011;27322;49.488;8.480;2023-05-19T02:14:00;5.97;;;1.50;;
41629;SDS011;27322;49.488;8.480;2023-05-19T02:16:29;5.00;;;1.45;;
41629;SDS011;27322;49.488;8.480;2023-05-19T02:18:57;6.20;;;1.65;;
41629;SDS011;27322;49.488;8.480;2023-05-19T02:21:23;6.85;;;1.70;;
41629;SDS011;27322;49.488;8.480;2023-05-19T02:23:49;4.90;;;1.67;;
41629;SDS011;27322;49.488;8.480;2023-05-19T02:26:14;5.43;;;1.80;;
41629;SDS011;27322;49.488;8.480;2023-05-19T02:28:40;8.48;;;1.50;;
41629;SDS011;27322;49.488;8.480;2023-05-19T02:31:06;4.15;;;1.50;;
41629;SDS011;27322;49.488;8.480;2023-05-19T02:33:33;5.50;;;1.90;;
41629;SDS011;27322;49.488;8.480;2023-05-19T02:36:00;6.28;;;2.00;;
41629;SDS011;27322;49.488;8.480;2023-05-19T02:38:26;6.97;;;1.90;;
41629;SDS011;27322;49.488;8.480;2023-05-19T02:40:51;7.40;;;1.95;;
41629;SDS011;27322;49.488;8.480;2023-05-19T02:43:17;6.55;;;1.92;;
41629;SDS011;27322;49.488;8.480;2023-05-19T02:45:43;8.70;;;2.35;;
41629;SDS011;27322;49.488;8.480;2023-05-19T02:48:09;5.32;;;2.00;;
41629;SDS011;27322;49.488;8.480;2023-05-19T02:50:34;7.90;;;2.35;;
41629;SDS011;27322;49.488;8.480;2023-05-19T02:53:00;6.55;;;1.83;;
41629;SDS011;27322;49.488;8.480;2023-05-19T02:55:26;5.95;;;2.30;;
41629;SDS011;27322;49.488;8.480;2023-05-19T02:57:52;5.18;;;1.98;;
41629;SDS011;27322;49.488;8.480;2023-05-19T03:00:18;7.32;;;2.03;;
41629;SDS011;27322;49.488;8.480;2023-05-19T03:02:44;6.53;;;2.15;;
41629;SDS011;27322;49.488;8.480;2023-05-19T03:05:09;6.00;;;1.92;;
41629;SDS011;27322;49.488;8.480;2023-05-19T03:07:35;7.22;;;1.90;;
41629;SDS011;27322;49.488;8.480;2023-05-19T03:10:01;6.53;;;1.88;;
41629;SDS011;27322;49.488;8.480;2023-05-19T03:12:31;6.32;;;2.00;;
41629;SDS011;27322;49.488;8.480;2023-05-19T03:14:57;7.03;;;2.03;;
41629;SDS011;27322;49.488;8.480;2023-05-19T03:17:23;7.72;;;1.80;;
41629;SDS011;27322;49.488;8.480;2023-05-19T03:19:49;8.15;;;2.17;;
41629;SDS011;27322;49.488;8.480;2023-05-19T03:22:15;6.28;;;2.00;;
41629;SDS011;27322;49.488;8.480;2023-05-19T03:24:42;8.45;;;2.30;;
41629;SDS011;27322;49.488;8.480;2023-05-19T03:27:08;5.85;;;2.05;;
41629;SDS011;27322;49.488;8.480;2023-05-19T03:29:33;5.03;;;1.92;;
41629;SDS011;27322;49.488;8.480;2023-05-19T03:32:00;6.38;;;1.80;;
41629;SDS011;27322;49.488;8.480;2023-05-19T03:34:26;7.13;;;2.30;;
41629;SDS011;27322;49.488;8.480;2023-05-19T03:36:52;9.82;;;2.30;;
41629;SDS011;27322;49.488;8.480;2023-05-19T03:39:17;6.07;;;2.15;;
41629;SDS011;27322;49.488;8.480;2023-05-19T03:41:43;7.50;;;2.20;;
41629;SDS011;27322;49.488;8.480;2023-05-19T03:44:08;8.07;;;2.30;;
41629;SDS011;27322;49.488;8.480;2023-05-19T03:46:34;6.35;;;2.05;;
41629;SDS011;27322;49.488;8.480;2023-05-19T03:48:59;8.52;;;2.30;;
41629;SDS011;27322;49.488;8.480;2023-05-19T03:51:25;8.10;;;2.70;;
41629;SDS011;27322;49.488;8.480;2023-05-19T03:53:52;6.82;;;2.50;;
41629;SDS011;27322;49.488;8.480;2023-05-19T03:56:18;8.85;;;2.92;;
41629;SDS011;27322;49.488;8.480;2023-05-19T03:58:44;6.15;;;2.75;;
41629;SDS011;27322;49.488;8.480;2023-05-19T04:01:10;8.93;;;2.70;;
41629;SDS011;27322;49.488;8.480;2023-05-19T04:03:36;8.30;;;2.65;;
41629;SDS011;27322;49.488;8.480;2023-05-19T04:06:02;8.18;;;2.95;;
41629;SDS011;27322;49.488;8.480;2023-05-19T04:08:27;8.05;;;2.55;;
41629;SDS011;27322;49.488;8.480;2023-05-19T04:10:53;8.18;;;2.88;;
41629;SDS011;27322;49.488;8.480;2023-05-19T04:13:20;6.20;;;3.10;;
41629;SDS011;27322;49.488;8.480;2023-05-19T04:15:45;7.15;;;2.72;;
41629;SDS011;27322;49.488;8.480;2023-05-19T04:18:11;6.25;;;2.63;;
41629;SDS011;27322;49.488;8.480;2023-05-19T04:20:36;7.03;;;2.60;;
41629;SDS011;27322;49.488;8.480;2023-05-19T04:23:02;8.55;;;2.67;;
41629;SDS011;27322;49.488;8.480;2023-05-19T04:25:28;7.22;;;2.40;;
41629;SDS011;27322;49.488;8.480;2023-05-19T04:27:53;8.27;;;3.10;;
41629;SDS011;27322;49.488;8.480;2023-05-19T04:30:21;9.30;;;2.53;;
41629;SDS011;27322;49.488;8.480;2023-05-19T04:32:48;7.55;;;2.47;;
41629;SDS011;27322;49.488;8.480;2023-05-19T04:35:14;7.70;;;2.42;;
41629;SDS011;27322;49.488;8.480;2023-05-19T04:37:41;9.32;;;2.50;;
41629;SDS011;27322;49.488;8.480;2023-05-19T04:40:09;6.88;;;2.63;;
41629;SDS011;27322;49.488;8.480;2023-05-19T04:42:36;8.95;;;2.70;;
41629;SDS011;27322;49.488;8.480;2023-05-19T04:45:05;6.32;;;2.85;;
41629;SDS011;27322;49.488;8.480;2023-05-19T04:47:32;8.02;;;2.83;;
41629;SDS011;27322;49.488;8.480;2023-05-19T04:50:01;6.45;;;2.40;;
41629;SDS011;27322;49.488;8.480;2023-05-19T04:52:27;7.28;;;2.53;;
41629;SDS011;27322;49.488;8.480;2023-05-19T04:54:52;11.18;;;2.80;;
41629;SDS011;27322;49.488;8.480;2023-05-19T04:57:18;7.38;;;2.33;;
41629;SDS011;27322;49.488;8.480;2023-05-19T04:59:44;6.95;;;2.20;;
41629;SDS011;27322;49.488;8.480;2023-05-19T05:02:10;7.38;;;2.40;;
41629;SDS011;27322;49.488;8.480;2023-05-19T05:04:36;10.02;;;2.72;;
41629;SDS011;27322;49.488;8.480;2023-05-19T05:07:04;10.68;;;2.90;;
41629;SDS011;27322;49.488;8.480;2023-05-19T05:09:30;7.47;;;2.20;;
41629;SDS011;27322;49.488;8.480;2023-05-19T05:11:56;7.13;;;2.35;;
41629;SDS011;27322;49.488;8.480;2023-05-19T05:14:22;9.73;;;2.60;;
41629;SDS011;27322;49.488;8.480;2023-05-19T05:16:48;8.07;;;2.50;;
41629;SDS011;27322;49.488;8.480;2023-05-19T05:19:14;7.63;;;2.38;;
41629;SDS011;27322;49.488;8.480;2023-05-19T05:21:39;7.13;;;2.25;;
41629;SDS011;27322;49.488;8.480;2023-05-19T05:24:06;7.38;;;2.58;;
41629;SDS011;27322;49.488;8.480;2023-05-19T05:26:32;7.03;;;2.30;;
41629;SDS011;27322;49.488;8.480;2023-05-19T05:28:59;8.50;;;2.45;;
41629;SDS011;27322;49.488;8.480;2023-05-19T05:31:25;9.00;;;2.85;;
41629;SDS011;27322;49.488;8.480;2023-05-19T05:33:50;9.40;;;2.63;;
41629;SDS011;27322;49.488;8.480;2023-05-19T05:36:16;8.32;;;2.25;;
41629;SDS011;27322;49.488;8.480;2023-05-19T05:38:42;7.95;;;2.15;;
41629;SDS011;27322;49.488;8.480;2023-05-19T05:41:07;8.27;;;2.70;;
41629;SDS011;27322;49.488;8.480;2023-05-19T05:43:33;5.55;;;2.20;;
41629;SDS011;27322;49.488;8.480;2023-05-19T05:45:58;5.82;;;2.25;;
41629;SDS011;27322;49.488;8.480;2023-05-19T05:48:24;7.38;;;2.45;;
41629;SDS011;27322;49.488;8.480;2023-05-19T05:50:50;9.05;;;2.40;;
41629;SDS011;27322;49.488;8.480;2023-05-19T05:53:17;8.57;;;2.47;;
41629;SDS011;27322;49.488;8.480;2023-05-19T05:55:47;8.95;;;2.53;;
41629;SDS011;27322;49.488;8.480;2023-05-19T05:58:13;7.15;;;2.47;;
41629;SDS011;27322;49.488;8.480;2023-05-19T06:00:39;7.57;;;2.28;;
41629;SDS011;27322;49.488;8.480;2023-05-19T06:03:09;8.52;;;2.25;;
41629;SDS011;27322;49.488;8.480;2023-05-19T06:05:35;8.73;;;2.75;;
41629;SDS011;27322;49.488;8.480;2023-05-19T06:08:01;8.90;;;2.60;;
41629;SDS011;27322;49.488;8.480;2023-05-19T06:10:27;7.13;;;2.30;;
41629;SDS011;27322;49.488;8.480;2023-05-19T06:13:01;7.72;;;2.25;;
41629;SDS011;27322;49.488;8.480;2023-05-19T06:15:27;8.52;;;2.10;;
41629;SDS011;27322;49.488;8.480;2023-05-19T06:17:52;7.35;;;2.10;;
41629;SDS011;27322;49.488;8.480;2023-05-19T06:20:18;8.85;;;2.63;;
41629;SDS011;27322;49.488;8.480;2023-05-19T06:22:44;7.95;;;2.47;;
41629;SDS011;27322;49.488;8.480;2023-05-19T06:25:10;6.18;;;1.88;;
41629;SDS011;27322;49.488;8.480;2023-05-19T06:27:35;8.60;;;2.42;;
41629;SDS011;27322;49.488;8.480;2023-05-19T06:30:01;6.88;;;2.10;;
41629;SDS011;27322;49.488;8.480;2023-05-19T06:32:26;6.70;;;2.05;;
41629;SDS011;27322;49.488;8.480;2023-05-19T06:34:53;7.97;;;2.28;;
41629;SDS011;27322;49.488;8.480;2023-05-19T06:37:23;7.85;;;2.10;;
41629;SDS011;27322;49.488;8.480;2023-05-19T06:39:52;6.13;;;1.88;;
41629;SDS011;27322;49.488;8.480;2023-05-19T06:42:20;6.70;;;2.17;;
41629;SDS011;27322;49.488;8.480;2023-05-19T06:44:50;10.82;;;4.60;;
41629;SDS011;27322;49.488;8.480;2023-05-19T06:47:16;10.73;;;4.43;;
41629;SDS011;27322;49.488;8.480;2023-05-19T06:49:43;14.68;;;4.35;;
41629;SDS011;27322;49.488;8.480;2023-05-19T06:52:09;8.40;;;2.70;;
41629;SDS011;27322;49.488;8.480;2023-05-19T06:54:35;5.90;;;1.58;;
41629;SDS011;27322;49.488;8.480;2023-05-19T06:57:01;6.22;;;1.90;;
41629;SDS011;27322;49.488;8.480;2023-05-19T06:59:26;4.55;;;1.67;;
41629;SDS011;27322;49.488;8.480;2023-05-19T07:01:52;11.25;;;4.13;;
41629;SDS011;27322;49.488;8.480;2023-05-19T07:04:17;7.68;;;2.35;;
41629;SDS011;27322;49.488;8.480;2023-05-19T07:06:43;5.85;;;1.42;;
41629;SDS011;27322;49.488;8.480;2023-05-19T07:09:09;4.53;;;1.60;;
41629;SDS011;27322;49.488;8.480;2023-05-19T07:11:34;5.90;;;1.65;;
41629;SDS011;27322;49.488;8.480;2023-05-19T07:14:00;4.63;;;1.55;;
41629;SDS011;27322;49.488;8.480;2023-05-19T07:16:25;3.83;;;1.40;;
41629;SDS011;27322;49.488;8.480;2023-05-19T07:18:51;9.98;;;2.05;;
41629;SDS011;27322;49.488;8.480;2023-05-19T07:21:16;6.00;;;1.70;;
41629;SDS011;27322;49.488;8.480;2023-05-19T07:23:42;8.25;;;2.10;;
41629;SDS011;27322;49.488;8.480;2023-05-19T07:26:07;5.03;;;1.60;;
41629;SDS011;27322;49.488;8.480;2023-05-19T07:28:33;6.18;;;1.60;;
41629;SDS011;27322;49.488;8.480;2023-05-19T07:30:59;5.18;;;1.33;;
41629;SDS011;27322;49.488;8.480;2023-05-19T07:33:25;4.93;;;1.50;;
41629;SDS011;27322;49.488;8.480;2023-05-19T07:35:51;5.00;;;1.30;;
41629;SDS011;27322;49.488;8.480;2023-05-19T07:38:17;4.90;;;1.65;;
41629;SDS011;27322;49.488;8.480;2023-05-19T07:40:42;6.53;;;1.60;;
41629;SDS011;27322;49.488;8.480;2023-05-19T07:43:08;3.83;;;1.52;;
41629;SDS011;27322;49.488;8.480;2023-05-19T07:45:35;7.65;;;1.88;;
41629;SDS011;27322;49.488;8.480;2023-05-19T07:48:01;6.70;;;1.85;;
41629;SDS011;27322;49.488;8.480;2023-05-19T07:50:27;5.43;;;1.63;;
41629;SDS011;27322;49.488;8.480;2023-05-19T07:52:52;4.55;;;1.60;;
41629;SDS011;27322;49.488;8.480;2023-05-19T07:55:18;5.32;;;1.42;;
41629;SDS011;27322;49.488;8.480;2023-05-19T07:57:46;4.90;;;1.52;;
41629;SDS011;27322;49.488;8.480;2023-05-19T08:00:12;4.30;;;1.48;;
41629;SDS011;27322;49.488;8.480;2023-05-19T08:02:39;5.35;;;1.60;;
41629;SDS011;27322;49.488;8.480;2023-05-19T08:05:05;5.05;;;1.55;;
41629;SDS011;27322;49.488;8.480;2023-05-19T08:07:31;4.00;;;1.33;;
41629;SDS011;27322;49.488;8.480;2023-05-19T08:09:57;6.32;;;1.50;;
41629;SDS011;27322;49.488;8.480;2023-05-19T08:12:22;5.43;;;1.50;;
41629;SDS011;27322;49.488;8.480;2023-05-19T08:14:48;4.35;;;1.30;;
41629;SDS011;27322;49.488;8.480;2023-05-19T08:17:13;4.70;;;1.20;;
41629;SDS011;27322;49.488;8.480;2023-05-19T08:19:39;6.78;;;1.90;;
41629;SDS011;27322;49.488;8.480;2023-05-19T08:22:04;4.53;;;1.38;;
41629;SDS011;27322;49.488;8.480;2023-05-19T08:24:30;5.60;;;1.65;;
41629;SDS011;27322;49.488;8.480;2023-05-19T08:26:57;5.22;;;1.50;;
41629;SDS011;27322;49.488;8.480;2023-05-19T08:29:23;6.57;;;1.50;;
41629;SDS011;27322;49.488;8.480;2023-05-19T08:31:48;5.72;;;1.20;;
41629;SDS011;27322;49.488;8.480;2023-05-19T08:34:14;4.32;;;1.20;;
41629;SDS011;27322;49.488;8.480;2023-05-19T08:36:40;3.60;;;1.20;;
41629;SDS011;27322;49.488;8.480;2023-05-19T08:39:05;4.60;;;1.27;;
41629;SDS011;27322;49.488;8.480;2023-05-19T08:41:31;3.97;;;1.17;;
41629;SDS011;27322;49.488;8.480;2023-05-19T08:43:57;4.72;;;1.30;;
41629;SDS011;27322;49.488;8.480;2023-05-19T08:46:23;5.97;;;1.33;;
41629;SDS011;27322;49.488;8.480;2023-05-19T08:48:50;4.20;;;1.08;;
41629;SDS011;27322;49.488;8.480;2023-05-19T08:54:02;5.35;;;1.30;;
41629;SDS011;27322;49.488;8.480;2023-05-19T08:56:36;3.60;;;1.10;;
41629;SDS011;27322;49.488;8.480;2023-05-19T08:59:02;3.47;;;0.95;;
41629;SDS011;27322;49.488;8.480;2023-05-19T09:01:29;4.85;;;1.30;;
41629;SDS011;27322;49.488;8.480;2023-05-19T09:03:55;4.97;;;1.20;;
41629;SDS011;27322;49.488;8.480;2023-05-19T09:06:21;4.82;;;1.48;;
41629;SDS011;27322;49.488;8.480;2023-05-19T09:08:47;4.15;;;1.38;;
41629;SDS011;27322;49.488;8.480;2023-05-19T09:11:12;4.07;;;1.20;;
41629;SDS011;27322;49.488;8.480;2023-05-19T09:13:38;9.38;;;2.80;;
41629;SDS011;27322;49.488;8.480;2023-05-19T09:16:04;4.07;;;1.15;;
41629;SDS011;27322;49.488;8.480;2023-05-19T09:18:30;3.97;;;1.23;;
41629;SDS011;27322;49.488;8.480;2023-05-19T09:20:57;4.03;;;1.45;;
41629;SDS011;27322;49.488;8.480;2023-05-19T09:23:28;6.15;;;1.30;;
41629;SDS011;27322;49.488;8.480;2023-05-19T09:25:55;3.42;;;1.13;;
41629;SDS011;27322;49.488;8.480;2023-05-19T09:28:28;7.00;;;1.02;;
41629;SDS011;27322;49.488;8.480;2023-05-19T09:31:05;4.35;;;1.00;;
41629;SDS011;27322;49.488;8.480;2023-05-19T09:33:33;5.05;;;1.20;;
41629;SDS011;27322;49.488;8.480;2023-05-19T09:36:00;4.70;;;1.35;;
41629;SDS011;27322;49.488;8.480;2023-05-19T09:38:27;6.80;;;1.23;;
41629;SDS011;27322;49.488;8.480;2023-05-19T09:40:57;4.03;;;1.33;;
41629;SDS011;27322;49.488;8.480;2023-05-19T09:43:26;6.43;;;1.30;;
41629;SDS011;27322;49.488;8.480;2023-05-19T09:46:06;3.63;;;1.20;;
41629;SDS011;27322;49.488;8.480;2023-05-19T09:48:35;4.07;;;1.13;;
41629;SDS011;27322;49.488;8.480;2023-05-19T09:51:01;3.35;;;1.00;;
41629;SDS011;27322;49.488;8.480;2023-05-19T09:53:30;3.78;;;1.27;;
41629;SDS011;27322;49.488;8.480;2023-05-19T09:55:57;5.18;;;1.20;;
41629;SDS011;27322;49.488;8.480;2023-05-19T09:58:25;4.03;;;1.17;;
41629;SDS011;27322;49.488;8.480;2023-05-19T10:00:55;6.20;;;1.20;;
41629;SDS011;27322;49.488;8.480;2023-05-19T10:03:23;4.05;;;1.38;;
41629;SDS011;27322;49.488;8.480;2023-05-19T10:05:50;4.40;;;1.20;;
41629;SDS011;27322;49.488;8.480;2023-05-19T10:08:17;4.35;;;1.30;;
41629;SDS011;27322;49.488;8.480;2023-05-19T10:10:46;6.13;;;1.30;;
41629;SDS011;27322;49.488;8.480;2023-05-19T10:13:12;4.93;;;1.25;;
41629;SDS011;27322;49.488;8.480;2023-05-19T10:15:41;5.05;;;1.25;;
41629;SDS011;27322;49.488;8.480;2023-05-19T10:18:08;8.73;;;1.35;;
41629;SDS011;27322;49.488;8.480;2023-05-19T10:20:34;11.88;;;5.78;;
41629;SDS011;27322;49.488;8.480;2023-05-19T10:23:01;7.18;;;3.15;;
41629;SDS011;27322;49.488;8.480;2023-05-19T10:25:28;5.63;;;1.50;;
41629;SDS011;27322;49.488;8.480;2023-05-19T10:28:02;6.38;;;1.10;;
41629;SDS011;27322;49.488;8.480;2023-05-19T10:30:36;4.38;;;1.10;;
41629;SDS011;27322;49.488;8.480;2023-05-19T10:33:03;6.95;;;1.20;;
41629;SDS011;27322;49.488;8.480;2023-05-19T10:49:22;5.72;;;1.40;;
41629;SDS011;27322;49.488;8.480;2023-05-19T10:51:48;3.35;;;1.15;;
41629;SDS011;27322;49.488;8.480;2023-05-19T10:54:37;3.70;;;1.08;;
41629;SDS011;27322;49.488;8.480;2023-05-19T10:57:07;4.40;;;1.27;;
41629;SDS011;27322;49.488;8.480;2023-05-19T10:59:34;4.55;;;1.00;;
41629;SDS011;27322;49.488;8.480;2023-05-19T11:02:03;5.22;;;1.27;;
41629;SDS011;27322;49.488;8.480;2023-05-19T11:07:18;3.15;;;1.20;;
41629;SDS011;27322;49.488;8.480;2023-05-19T11:09:51;4.13;;;1.10;;
41629;SDS011;27322;49.488;8.480;2023-05-19T11:12:20;5.60;;;1.20;;
41629;SDS011;27322;49.488;8.480;2023-05-19T11:14:47;4.53;;;1.30;;
41629;SDS011;27322;49.488;8.480;2023-05-19T11:17:17;4.50;;;1.25;;
41629;SDS011;27322;49.488;8.480;2023-05-19T11:19:52;9.52;;;5.18;;
41629;SDS011;27322;49.488;8.480;2023-05-19T11:22:23;6.72;;;2.60;;
41629;SDS011;27322;49.488;8.480;2023-05-19T11:24:55;5.95;;;1.85;;
41629;SDS011;27322;49.488;8.480;2023-05-19T11:29:51;5.80;;;1.60;;
41629;SDS011;27322;49.488;8.480;2023-05-19T11:32:18;5.95;;;1.42;;
41629;SDS011;27322;49.488;8.480;2023-05-19T11:34:45;5.88;;;1.50;;
41629;SDS011;27322;49.488;8.480;2023-05-19T11:37:13;3.88;;;1.30;;
41629;SDS011;27322;49.488;8.480;2023-05-19T11:39:39;5.40;;;1.52;;
41629;SDS011;27322;49.488;8.480;2023-05-19T11:42:05;4.70;;;1.30;;
41629;SDS011;27322;49.488;8.480;2023-05-19T11:44:32;4.25;;;1.30;;
41629;SDS011;27322;49.488;8.480;2023-05-19T11:46:58;4.45;;;1.48;;
41629;SDS011;27322;49.488;8.480;2023-05-19T11:49:26;4.28;;;1.20;;
41629;SDS011;27322;49.488;8.480;2023-05-19T11:51:52;5.13;;;1.30;;
41629;SDS011;27322;49.488;8.480;2023-05-19T11:54:18;7.05;;;1.90;;
41629;SDS011;27322;49.488;8.480;2023-05-19T11:56:44;6.47;;;1.55;;
41629;SDS011;27322;49.488;8.480;2023-05-19T11:59:10;5.20;;;1.40;;
41629;SDS011;27322;49.488;8.480;2023-05-19T12:01:35;4.28;;;1.35;;
41629;SDS011;27322;49.488;8.480;2023-05-19T12:04:01;6.30;;;1.42;;
41629;SDS011;27322;49.488;8.480;2023-05-19T12:06:31;3.42;;;1.17;;
41629;SDS011;27322;49.488;8.480;2023-05-19T12:08:57;3.97;;;1.13;;
41629;SDS011;27322;49.488;8.480;2023-05-19T12:11:27;6.00;;;1.92;;
41629;SDS011;27322;49.488;8.480;2023-05-19T12:13:59;9.93;;;2.00;;
41629;SDS011;27322;49.488;8.480;2023-05-19T12:16:31;6.72;;;1.73;;
41629;SDS011;27322;49.488;8.480;2023-05-19T12:19:09;4.80;;;1.20;;
41629;SDS011;27322;49.488;8.480;2023-05-19T12:21:35;4.85;;;1.20;;
41629;SDS011;27322;49.488;8.480;2023-05-19T12:24:01;3.83;;;1.30;;
41629;SDS011;27322;49.488;8.480;2023-05-19T12:26:28;4.13;;;1.33;;
41629;SDS011;27322;49.488;8.480;2023-05-19T12:28:53;5.80;;;1.70;;
41629;SDS011;27322;49.488;8.480;2023-05-19T12:31:20;5.32;;;1.63;;
41629;SDS011;27322;49.488;8.480;2023-05-19T12:33:47;6.38;;;1.30;;
41629;SDS011;27322;49.488;8.480;2023-05-19T12:36:16;4.35;;;1.30;;
41629;SDS011;27322;49.488;8.480;2023-05-19T12:38:43;3.22;;;1.30;;
41629;SDS011;27322;49.488;8.480;2023-05-19T12:41:12;4.53;;;1.63;;
41629;SDS011;27322;49.488;8.480;2023-05-19T12:43:39;5.40;;;1.52;;
41629;SDS011;27322;49.488;8.480;2023-05-19T12:46:08;4.53;;;1.30;;
41629;SDS011;27322;49.488;8.480;2023-05-19T12:48:41;5.57;;;1.23;;
41629;SDS011;27322;49.488;8.480;2023-05-19T12:51:08;3.42;;;1.00;;
41629;SDS011;27322;49.488;8.480;2023-05-19T12:53:35;5.40;;;1.55;;
41629;SDS011;27322;49.488;8.480;2023-05-19T12:56:02;5.50;;;1.13;;
41629;SDS011;27322;49.488;8.480;2023-05-19T12:58:38;3.58;;;1.08;;
41629;SDS011;27322;49.488;8.480;2023-05-19T13:01:04;3.53;;;1.30;;
41629;SDS011;27322;49.488;8.480;2023-05-19T13:03:31;3.60;;;1.30;;
41629;SDS011;27322;49.488;8.480;2023-05-19T13:05:56;5.05;;;1.17;;
41629;SDS011;27322;49.488;8.480;2023-05-19T13:08:23;3.90;;;1.23;;
41629;SDS011;27322;49.488;8.480;2023-05-19T13:10:49;3.38;;;1.30;;
41629;SDS011;27322;49.488;8.480;2023-05-19T13:13:15;5.70;;;1.40;;
41629;SDS011;27322;49.488;8.480;2023-05-19T13:15:41;3.75;;;1.30;;
41629;SDS011;27322;49.488;8.480;2023-05-19T13:18:09;5.18;;;1.13;;
41629;SDS011;27322;49.488;8.480;2023-05-19T13:20:36;4.97;;;1.10;;
41629;SDS011;27322;49.488;8.480;2023-05-19T13:23:03;4.28;;;1.30;;
41629;SDS011;27322;49.488;8.480;2023-05-19T13:25:30;3.08;;;1.00;;
41629;SDS011;27322;49.488;8.480;2023-05-19T13:27:59;2.90;;;1.13;;
41629;SDS011;27322;49.488;8.480;2023-05-19T13:30:28;5.00;;;1.30;;
41629;SDS011;27322;49.488;8.480;2023-05-19T13:32:54;3.13;;;1.30;;
41629;SDS011;27322;49.488;8.480;2023-05-19T13:35:20;3.78;;;1.33;;
41629;SDS011;27322;49.488;8.480;2023-05-19T13:37:45;3.72;;;1.08;;
41629;SDS011;27322;49.488;8.480;2023-05-19T13:40:11;2.92;;;1.17;;
41629;SDS011;27322;49.488;8.480;2023-05-19T13:42:37;4.03;;;1.15;;
41629;SDS011;27322;49.488;8.480;2023-05-19T13:45:04;3.75;;;1.10;;
41629;SDS011;27322;49.488;8.480;2023-05-19T13:47:30;4.03;;;1.20;;
41629;SDS011;27322;49.488;8.480;2023-05-19T13:49:55;3.33;;;1.10;;
41629;SDS011;27322;49.488;8.480;2023-05-19T13:52:21;3.83;;;1.20;;
41629;SDS011;27322;49.488;8.480;2023-05-19T13:54:47;4.57;;;1.23;;
41629;SDS011;27322;49.488;8.480;2023-05-19T13:57:13;4.47;;;1.10;;
41629;SDS011;27322;49.488;8.480;2023-05-19T13:59:40;2.75;;;1.10;;
41629;SDS011;27322;49.488;8.480;2023-05-19T14:02:06;4.57;;;1.10;;
41629;SDS011;27322;49.488;8.480;2023-05-19T14:04:35;3.08;;;1.23;;
41629;SDS011;27322;49.488;8.480;2023-05-19T14:07:02;4.40;;;1.30;;
41629;SDS011;27322;49.488;8.480;2023-05-19T14:09:29;3.88;;;0.98;;
41629;SDS011;27322;49.488;8.480;2023-05-19T14:11:55;4.10;;;1.13;;
41629;SDS011;27322;49.488;8.480;2023-05-19T14:14:20;4.53;;;1.42;;
41629;SDS011;27322;49.488;8.480;2023-05-19T14:16:46;4.55;;;1.30;;
41629;SDS011;27322;49.488;8.480;2023-05-19T14:19:12;4.97;;;1.27;;
41629;SDS011;27322;49.488;8.480;2023-05-19T14:21:38;3.42;;;1.10;;
41629;SDS011;27322;49.488;8.480;2023-05-19T14:24:04;2.90;;;0.82;;
41629;SDS011;27322;49.488;8.480;2023-05-19T14:26:30;2.28;;;0.93;;
41629;SDS011;27322;49.488;8.480;2023-05-19T14:28:56;4.57;;;1.13;;
41629;SDS011;27322;49.488;8.480;2023-05-19T14:31:21;2.92;;;1.17;;
41629;SDS011;27322;49.488;8.480;2023-05-19T14:33:47;2.78;;;1.00;;
41629;SDS011;27322;49.488;8.480;2023-05-19T14:36:13;3.05;;;1.13;;
41629;SDS011;27322;49.488;8.480;2023-05-19T14:38:38;3.45;;;1.10;;
41629;SDS011;27322;49.488;8.480;2023-05-19T14:41:04;5.07;;;1.38;;
41629;SDS011;27322;49.488;8.480;2023-05-19T14:43:31;2.78;;;0.90;;
41629;SDS011;27322;49.488;8.480;2023-05-19T14:45:59;3.05;;;0.90;;
41629;SDS011;27322;49.488;8.480;2023-05-19T14:48:25;2.90;;;1.00;;
41629;SDS011;27322;49.488;8.480;2023-05-19T14:50:51;3.55;;;1.08;;
41629;SDS011;27322;49.488;8.480;2023-05-19T14:53:17;2.85;;;1.00;;
41629;SDS011;27322;49.488;8.480;2023-05-19T14:55:43;3.70;;;1.30;;
41629;SDS011;27322;49.488;8.480;2023-05-19T14:58:11;3.75;;;1.27;;
41629;SDS011;27322;49.488;8.480;2023-05-19T15:00:37;2.92;;;1.20;;
41629;SDS011;27322;49.488;8.480;2023-05-19T15:03:03;2.38;;;0.90;;
41629;SDS011;27322;49.488;8.480;2023-05-19T15:05:28;3.78;;;1.20;;
41629;SDS011;27322;49.488;8.480;2023-05-19T15:07:54;3.13;;;1.10;;
41629;SDS011;27322;49.488;8.480;2023-05-19T15:10:19;3.38;;;1.00;;
41629;SDS011;27322;49.488;8.480;2023-05-19T15:12:45;3.55;;;1.20;;
41629;SDS011;27322;49.488;8.480;2023-05-19T15:15:11;4.78;;;1.27;;
41629;SDS011;27322;49.488;8.480;2023-05-19T15:17:38;5.93;;;1.20;;
41629;SDS011;27322;49.488;8.480;2023-05-19T15:20:03;2.38;;;1.23;;
41629;SDS011;27322;49.488;8.480;2023-05-19T15:22:29;4.63;;;1.17;;